»·PEaware :: SWA3387 KDCA-KMDW

SWA3387 :: KDCA-KMDW

FLIGHT INFORMATION

Flight Status: Arrived
Operator:
Southwest Airlines
More flights by this operator :: More flights under this callsign
Pilot: Daniel W. (24238)
Aircraft: BOEING 737-800
(B738)
More flights by this aircraft type
Origin: KDCA Ronald Reagan Washington Natl
United States
Destination: KMDW Chicago-Midway
United States
More flights between these airports :: More routes between these airports
Route: WYNGS5 RAMAY Q72 HACKS J149 FWA PANGG5
File this flight plan on PilotEdge
Remarks: PBN / A1C1D1L1O1S2TI NAV / RNVD1E1A1 RNP10 RNP4 DAT / 1FANSE2PDC SUR / 260B REG / N8690A EET / KZID0033 KZAU0107 SEL / EKDQ CODE / ABF29F
Altitude:
(Current/Filed)
34,000ft
Speed:
(Current/Filed)
460kts
Departed: 12-Feb-24 03:23 AM
Arrived: 12-Feb-24 05:04 AM
Distance/Time
Traveled:
520nm/1:41
Distance/Time
To Go:
Arrived

Flight Plot

Page will automatically refresh every two minutes.

Flight plan parsing failed; only flown route is shown


Map Options




Map Legend


Flown Route
Filed Route
Departure Airport
Arrival Airport
Navaid (VOR, NDB)
Fix

Horizontal Profiles

Position Reports

Time Latitude Longitude Heading Altitude Ground
Speed
12-Feb-24 02:34 38.847184 -77.043342 130 23ft 0kts
12-Feb-24 02:34 38.847184 -77.043342 130 23ft 0kts
12-Feb-24 02:35 38.847184 -77.043342 130 23ft 0kts
12-Feb-24 02:36 38.847184 -77.043342 130 23ft 0kts
12-Feb-24 02:37 38.847184 -77.043342 130 23ft 0kts
12-Feb-24 02:38 38.847184 -77.043342 130 23ft 0kts
12-Feb-24 02:39 38.847184 -77.043342 130 23ft 0kts
12-Feb-24 02:40 38.847184 -77.043342 130 23ft 0kts
12-Feb-24 02:41 38.847184 -77.043342 130 23ft 0kts
12-Feb-24 02:42 38.847184 -77.043342 130 23ft 0kts
12-Feb-24 02:43 38.847184 -77.043342 130 23ft 0kts
12-Feb-24 02:44 38.847184 -77.043342 130 23ft 0kts
12-Feb-24 02:45 38.847184 -77.043342 130 23ft 0kts
12-Feb-24 02:46 38.847184 -77.043342 130 23ft 0kts
12-Feb-24 02:47 38.847184 -77.043342 130 23ft 0kts
12-Feb-24 02:48 38.847184 -77.043342 130 23ft 0kts
12-Feb-24 02:49 38.847184 -77.043342 130 23ft 0kts
12-Feb-24 02:50 38.847184 -77.043342 130 23ft 0kts
12-Feb-24 02:51 38.847184 -77.043342 130 23ft 0kts
12-Feb-24 02:52 38.847184 -77.043342 130 23ft 0kts
12-Feb-24 02:53 38.847184 -77.043342 130 23ft 0kts
12-Feb-24 02:54 38.847184 -77.043342 130 23ft 0kts
12-Feb-24 02:55 38.847184 -77.043342 130 23ft 0kts
12-Feb-24 02:56 38.847184 -77.043342 130 23ft 0kts
12-Feb-24 02:57 38.847184 -77.043342 130 23ft 0kts
12-Feb-24 02:58 38.847184 -77.043342 130 23ft 0kts
12-Feb-24 02:59 38.847184 -77.043342 130 23ft 0kts
12-Feb-24 03:00 38.847184 -77.043342 130 32ft 0kts
12-Feb-24 03:01 38.847184 -77.043342 130 32ft 0kts
12-Feb-24 03:02 38.847156 -77.043302 130 32ft 0kts
12-Feb-24 03:03 38.847156 -77.043302 130 32ft 0kts
12-Feb-24 03:04 38.847156 -77.043302 130 32ft 0kts
12-Feb-24 03:05 38.847157 -77.043303 130 32ft 0kts
12-Feb-24 03:06 38.847519 -77.043661 175 26ft 0kts
12-Feb-24 03:07 38.847519 -77.043661 175 23ft 0kts
12-Feb-24 03:08 38.847519 -77.043661 175 23ft 0kts
12-Feb-24 03:09 38.847519 -77.043661 175 23ft 0kts
12-Feb-24 03:10 38.847154 -77.043976 211 27ft 4kts
12-Feb-24 03:11 38.845926 -77.043596 137 23ft 0kts
12-Feb-24 03:12 38.845926 -77.043596 137 23ft 0kts
12-Feb-24 03:13 38.845668 -77.042568 79 23ft 7kts
12-Feb-24 03:14 38.845651 -77.040198 169 23ft 7kts
12-Feb-24 03:15 38.845357 -77.040139 170 24ft 0kts
12-Feb-24 03:16 38.845357 -77.040139 170 24ft 0kts
12-Feb-24 03:17 38.844408 -77.039926 169 26ft 8kts
12-Feb-24 03:18 38.842391 -77.038702 144 26ft 0kts
12-Feb-24 03:19 38.842288 -77.038427 103 24ft 4kts
12-Feb-24 03:20 38.842214 -77.038069 105 23ft 0kts
12-Feb-24 03:21 38.841958 -77.037294 116 23ft 6kts
12-Feb-24 03:22 38.852366 -77.037841 356 26ft 144kts
12-Feb-24 03:23 38.893170 -77.063705 320 2301ft 210kts
12-Feb-24 03:24 38.937710 -77.124916 327 4822ft 257kts
12-Feb-24 03:25 38.974092 -77.197961 270 8441ft 257kts
12-Feb-24 03:26 38.972654 -77.294414 267 10851ft 307kts
12-Feb-24 03:27 38.971050 -77.416612 268 12642ft 357kts
12-Feb-24 03:28 38.969776 -77.544793 268 15603ft 360kts
12-Feb-24 03:29 38.968374 -77.674711 269 18245ft 366kts
12-Feb-24 03:30 38.966800 -77.806799 268 20311ft 374kts
12-Feb-24 03:31 38.965032 -77.942027 268 20961ft 376kts
12-Feb-24 03:32 38.963133 -78.076423 267 20974ft 377kts
12-Feb-24 03:33 38.961120 -78.211418 268 20968ft 377kts
12-Feb-24 03:34 38.969082 -78.345687 273 21021ft 381kts
12-Feb-24 03:35 38.978139 -78.482169 271 22988ft 384kts
12-Feb-24 03:36 38.986804 -78.619954 271 24552ft 388kts
12-Feb-24 03:37 38.995384 -78.759144 270 25885ft 393kts
12-Feb-24 03:38 39.003857 -78.899347 270 26935ft 394kts
12-Feb-24 03:39 39.012117 -79.039222 270 26961ft 393kts
12-Feb-24 03:40 39.020259 -79.179011 269 28507ft 383kts
12-Feb-24 03:41 39.029069 -79.314151 269 30177ft 376kts
12-Feb-24 03:42 39.037556 -79.443608 268 32253ft 351kts
12-Feb-24 03:43 39.045330 -79.566569 267 33903ft 338kts
12-Feb-24 03:44 39.052817 -79.687127 267 33962ft 338kts
12-Feb-24 03:45 39.060159 -79.807343 266 34298ft 336kts
12-Feb-24 03:46 39.067314 -79.925510 266 35347ft 329kts
12-Feb-24 03:47 39.074095 -80.039547 266 35963ft 309kts
12-Feb-24 03:48 39.080432 -80.148557 266 35983ft 303kts
12-Feb-24 03:49 39.086587 -80.256345 265 35985ft 302kts
12-Feb-24 03:50 39.092516 -80.363964 265 35982ft 303kts
12-Feb-24 03:51 39.098222 -80.472701 265 35988ft 305kts
12-Feb-24 03:52 39.103870 -80.581940 264 35972ft 307kts
12-Feb-24 03:53 39.109488 -80.692014 264 35972ft 308kts
12-Feb-24 03:54 39.116133 -80.802180 270 35974ft 315kts
12-Feb-24 03:55 39.155209 -80.909945 283 35974ft 341kts
12-Feb-24 03:56 39.196771 -81.017983 280 36823ft 332kts
12-Feb-24 03:57 39.237106 -81.124813 281 37781ft 331kts
12-Feb-24 03:58 39.277601 -81.232300 281 37997ft 335kts
12-Feb-24 03:59 39.318416 -81.340754 281 37988ft 336kts
12-Feb-24 04:00 39.359139 -81.449368 281 37994ft 337kts
12-Feb-24 04:01 39.400001 -81.558824 281 38000ft 339kts
12-Feb-24 04:02 39.440992 -81.669017 281 37991ft 341kts
12-Feb-24 04:03 39.482106 -81.779927 281 37998ft 343kts
12-Feb-24 04:04 39.523360 -81.891652 281 37991ft 345kts
12-Feb-24 04:05 39.564764 -82.004179 281 38008ft 346kts
12-Feb-24 04:06 39.606149 -82.117099 281 37998ft 348kts
12-Feb-24 04:07 39.647652 -82.230769 281 38014ft 349kts
12-Feb-24 04:08 39.689139 -82.344858 281 38011ft 350kts
12-Feb-24 04:09 39.730513 -82.459071 281 38016ft 351kts
12-Feb-24 04:10 39.772064 -82.574228 281 38023ft 352kts
12-Feb-24 04:11 39.813613 -82.689840 281 38022ft 354kts
12-Feb-24 04:12 39.855409 -82.806611 281 38028ft 357kts
12-Feb-24 04:13 39.897344 -82.924226 281 38028ft 359kts
12-Feb-24 04:14 39.939281 -83.042328 282 38027ft 360kts
12-Feb-24 04:15 39.981337 -83.161251 282 38029ft 362kts
12-Feb-24 04:16 40.023602 -83.281273 282 38023ft 364kts
12-Feb-24 04:17 40.065819 -83.401651 282 38020ft 366kts
12-Feb-24 04:18 40.108183 -83.522957 282 38017ft 368kts
12-Feb-24 04:19 40.165336 -83.639247 292 38024ft 385kts
12-Feb-24 04:20 40.227264 -83.754112 292 38019ft 389kts
12-Feb-24 04:21 40.289726 -83.870761 292 38015ft 393kts
12-Feb-24 04:22 40.352615 -83.988638 293 38015ft 395kts
12-Feb-24 04:23 40.415457 -84.106855 293 38023ft 395kts
12-Feb-24 04:24 40.478348 -84.225637 293 38024ft 395kts
12-Feb-24 04:25 40.540708 -84.343873 293 38020ft 394kts
12-Feb-24 04:26 40.602992 -84.462426 293 38022ft 392kts
12-Feb-24 04:27 40.664790 -84.580513 293 38036ft 392kts
12-Feb-24 04:28 40.727876 -84.701624 293 36968ft 401kts
12-Feb-24 04:29 40.790718 -84.822484 293 35967ft 397kts
12-Feb-24 04:30 40.852493 -84.941943 293 33802ft 398kts
12-Feb-24 04:31 40.916327 -85.065935 293 30505ft 408kts
12-Feb-24 04:32 40.979342 -85.184308 303 30027ft 412kts
12-Feb-24 04:33 41.078873 -85.267233 317 30025ft 399kts
12-Feb-24 04:34 41.173171 -85.340862 315 30056ft 395kts
12-Feb-24 04:35 41.267578 -85.415683 316 30052ft 390kts
12-Feb-24 04:36 41.360795 -85.489909 317 27507ft 400kts
12-Feb-24 04:37 41.454380 -85.564330 317 25525ft 384kts
12-Feb-24 04:38 41.515871 -85.662020 276 23511ft 330kts
12-Feb-24 04:39 41.519910 -85.783264 268 21013ft 326kts
12-Feb-24 04:40 41.521895 -85.903906 269 18802ft 326kts
12-Feb-24 04:41 41.524150 -86.024397 270 16795ft 319kts
12-Feb-24 04:42 41.524923 -86.140753 268 15157ft 305kts
12-Feb-24 04:43 41.524232 -86.252651 269 13406ft 300kts
12-Feb-24 04:44 41.523616 -86.362945 269 11627ft 293kts
12-Feb-24 04:45 41.522919 -86.469376 268 10480ft 271kts
12-Feb-24 04:46 41.522232 -86.563254 268 10026ft 235kts
12-Feb-24 04:47 41.521496 -86.652019 268 9432ft 244kts
12-Feb-24 04:48 41.520691 -86.743044 269 8814ft 246kts
12-Feb-24 04:49 41.519826 -86.834138 269 8181ft 240kts
12-Feb-24 04:51 41.518891 -86.923150 269 7586ft 241kts
12-Feb-24 04:52 41.524927 -87.011853 287 6807ft 241kts
12-Feb-24 04:53 41.546114 -87.095489 288 5801ft 239kts
12-Feb-24 04:54 41.566555 -87.179805 288 4769ft 239kts
12-Feb-24 04:55 41.586584 -87.264010 288 4072ft 240kts
12-Feb-24 04:56 41.606788 -87.349653 288 3999ft 242kts
12-Feb-24 04:57 41.626812 -87.434951 287 4005ft 240kts
12-Feb-24 04:58 41.645991 -87.516959 287 4003ft 208kts
12-Feb-24 04:59 41.665346 -87.581390 310 4007ft 174kts
12-Feb-24 05:00 41.697330 -87.628068 313 3166ft 167kts
12-Feb-24 05:01 41.728982 -87.672788 313 2237ft 148kts
12-Feb-24 05:02 41.755461 -87.710175 312 1374ft 139kts
12-Feb-24 05:03 41.782127 -87.747783 313 635ft 133kts
12-Feb-24 05:04 41.791251 -87.757679 86 628ft 12kts
12-Feb-24 05:05 41.789022 -87.753285 133 629ft 19kts
12-Feb-24 05:06 41.786169 -87.748176 97 632ft 12kts
12-Feb-24 05:07 41.785321 -87.744807 43 634ft 11kts
12-Feb-24 05:08 41.785392 -87.743625 133 631ft 0kts
12-Feb-24 05:09 41.785392 -87.743625 133 631ft 0kts
12-Feb-24 05:10 41.785392 -87.743625 133 631ft 0kts
12-Feb-24 05:11 41.785392 -87.743625 133 631ft 0kts
12-Feb-24 05:12 41.785392 -87.743625 133 631ft 0kts
12-Feb-24 05:13 41.785392 -87.743625 133 631ft 0kts
12-Feb-24 05:13 41.785392 -87.743625 133 631ft 0kts
12-Feb-24 05:14 41.785392 -87.743625 133 631ft 0kts
12-Feb-24 05:16 41.785392 -87.743625 133 631ft 0kts
12-Feb-24 05:17 41.785392 -87.743625 133 631ft 0kts
12-Feb-24 05:18 41.785392 -87.743625 133 631ft 0kts

Navigation Log

Ident Type
Flight plan parsing failed, navigation log unavailable